sensor_id;sensor_type;location;lat;lon;timestamp;P1;durP1;ratioP1;P2;durP2;ratioP2
17592;SDS011;8915;51.760;14.300;2024-03-02T00:00:13;35.90;;;21.80;;
17592;SDS011;8915;51.760;14.300;2024-03-02T00:02:49;33.80;;;21.73;;
17592;SDS011;8915;51.760;14.300;2024-03-02T00:05:20;36.60;;;22.20;;
17592;SDS011;8915;51.760;14.300;2024-03-02T00:07:52;34.23;;;21.13;;
17592;SDS011;8915;51.760;14.300;2024-03-02T00:10:35;31.77;;;21.73;;
17592;SDS011;8915;51.760;14.300;2024-03-02T00:13:12;31.67;;;19.87;;
17592;SDS011;8915;51.760;14.300;2024-03-02T00:15:51;30.87;;;19.27;;
17592;SDS011;8915;51.760;14.300;2024-03-02T00:18:32;29.87;;;20.60;;
17592;SDS011;8915;51.760;14.300;2024-03-02T00:21:07;30.57;;;20.13;;
17592;SDS011;8915;51.760;14.300;2024-03-02T00:23:43;32.10;;;19.97;;
17592;SDS011;8915;51.760;14.300;2024-03-02T00:29:18;28.37;;;18.77;;
17592;SDS011;8915;51.760;14.300;2024-03-02T00:32:02;28.77;;;18.93;;
17592;SDS011;8915;51.760;14.300;2024-03-02T00:34:42;29.50;;;19.00;;
17592;SDS011;8915;51.760;14.300;2024-03-02T00:37:16;30.63;;;19.13;;
17592;SDS011;8915;51.760;14.300;2024-03-02T00:39:50;31.20;;;18.67;;
17592;SDS011;8915;51.760;14.300;2024-03-02T00:42:25;29.83;;;19.40;;
17592;SDS011;8915;51.760;14.300;2024-03-02T00:45:16;31.23;;;19.60;;
17592;SDS011;8915;51.760;14.300;2024-03-02T00:47:51;29.07;;;20.13;;
17592;SDS011;8915;51.760;14.300;2024-03-02T00:50:26;29.37;;;19.33;;
17592;SDS011;8915;51.760;14.300;2024-03-02T00:53:04;31.87;;;19.77;;
17592;SDS011;8915;51.760;14.300;2024-03-02T00:55:38;32.27;;;19.10;;
17592;SDS011;8915;51.760;14.300;2024-03-02T00:58:13;29.33;;;19.30;;
17592;SDS011;8915;51.760;14.300;2024-03-02T01:01:05;30.07;;;18.93;;
17592;SDS011;8915;51.760;14.300;2024-03-02T01:03:46;29.33;;;20.17;;
17592;SDS011;8915;51.760;14.300;2024-03-02T01:06:18;29.43;;;18.53;;
17592;SDS011;8915;51.760;14.300;2024-03-02T01:09:03;30.17;;;18.80;;
17592;SDS011;8915;51.760;14.300;2024-03-02T01:11:47;29.17;;;19.13;;
17592;SDS011;8915;51.760;14.300;2024-03-02T01:14:30;29.23;;;19.60;;
17592;SDS011;8915;51.760;14.300;2024-03-02T01:17:00;33.20;;;20.53;;
17592;SDS011;8915;51.760;14.300;2024-03-02T01:19:41;29.40;;;20.47;;
17592;SDS011;8915;51.760;14.300;2024-03-02T01:22:34;30.37;;;18.27;;
17592;SDS011;8915;51.760;14.300;2024-03-02T01:25:05;29.73;;;19.27;;
17592;SDS011;8915;51.760;14.300;2024-03-02T01:27:37;32.70;;;20.20;;
17592;SDS011;8915;51.760;14.300;2024-03-02T01:30:11;29.57;;;20.13;;
17592;SDS011;8915;51.760;14.300;2024-03-02T01:32:40;29.50;;;20.43;;
17592;SDS011;8915;51.760;14.300;2024-03-02T01:35:19;32.90;;;20.17;;
17592;SDS011;8915;51.760;14.300;2024-03-02T01:37:51;35.47;;;20.70;;
17592;SDS011;8915;51.760;14.300;2024-03-02T01:40:40;29.37;;;20.23;;
17592;SDS011;8915;51.760;14.300;2024-03-02T01:43:15;31.90;;;20.47;;
17592;SDS011;8915;51.760;14.300;2024-03-02T01:46:04;29.00;;;20.50;;
17592;SDS011;8915;51.760;14.300;2024-03-02T01:48:50;33.30;;;19.27;;
17592;SDS011;8915;51.760;14.300;2024-03-02T01:51:20;33.87;;;20.03;;
17592;SDS011;8915;51.760;14.300;2024-03-02T01:53:57;30.17;;;20.43;;
17592;SDS011;8915;51.760;14.300;2024-03-02T01:56:30;33.97;;;21.70;;
17592;SDS011;8915;51.760;14.300;2024-03-02T01:59:29;31.33;;;20.10;;
17592;SDS011;8915;51.760;14.300;2024-03-02T02:02:09;31.23;;;19.23;;
17592;SDS011;8915;51.760;14.300;2024-03-02T02:04:45;32.77;;;19.87;;
17592;SDS011;8915;51.760;14.300;2024-03-02T02:07:18;29.87;;;20.37;;
17592;SDS011;8915;51.760;14.300;2024-03-02T02:10:00;29.83;;;19.17;;
17592;SDS011;8915;51.760;14.300;2024-03-02T02:12:29;35.17;;;20.23;;
17592;SDS011;8915;51.760;14.300;2024-03-02T02:15:25;30.40;;;19.30;;
17592;SDS011;8915;51.760;14.300;2024-03-02T02:18:09;29.20;;;20.43;;
17592;SDS011;8915;51.760;14.300;2024-03-02T02:23:42;29.37;;;19.73;;
17592;SDS011;8915;51.760;14.300;2024-03-02T02:26:20;31.93;;;19.80;;
17592;SDS011;8915;51.760;14.300;2024-03-02T02:29:02;31.93;;;19.03;;
17592;SDS011;8915;51.760;14.300;2024-03-02T02:31:37;32.03;;;21.40;;
17592;SDS011;8915;51.760;14.300;2024-03-02T02:34:24;29.77;;;19.53;;
17592;SDS011;8915;51.760;14.300;2024-03-02T02:37:00;30.03;;;20.40;;
17592;SDS011;8915;51.760;14.300;2024-03-02T02:39:37;31.03;;;19.53;;
17592;SDS011;8915;51.760;14.300;2024-03-02T02:42:18;34.13;;;21.03;;
17592;SDS011;8915;51.760;14.300;2024-03-02T02:45:18;30.10;;;20.07;;
17592;SDS011;8915;51.760;14.300;2024-03-02T02:47:56;32.60;;;19.93;;
17592;SDS011;8915;51.760;14.300;2024-03-02T02:50:42;30.13;;;19.67;;
17592;SDS011;8915;51.760;14.300;2024-03-02T02:53:16;28.23;;;19.57;;
17592;SDS011;8915;51.760;14.300;2024-03-02T02:55:58;31.97;;;20.40;;
17592;SDS011;8915;51.760;14.300;2024-03-02T02:58:42;27.27;;;19.17;;
17592;SDS011;8915;51.760;14.300;2024-03-02T03:01:18;26.80;;;18.47;;
17592;SDS011;8915;51.760;14.300;2024-03-02T03:03:53;31.13;;;20.37;;
17592;SDS011;8915;51.760;14.300;2024-03-02T03:06:50;25.10;;;18.60;;
17592;SDS011;8915;51.760;14.300;2024-03-02T03:09:22;31.40;;;20.03;;
17592;SDS011;8915;51.760;14.300;2024-03-02T03:12:06;28.70;;;18.17;;
17592;SDS011;8915;51.760;14.300;2024-03-02T03:14:54;32.33;;;20.63;;
17592;SDS011;8915;51.760;14.300;2024-03-02T03:17:34;29.57;;;20.07;;
17592;SDS011;8915;51.760;14.300;2024-03-02T03:20:11;29.77;;;19.60;;
17592;SDS011;8915;51.760;14.300;2024-03-02T03:22:50;29.27;;;19.60;;
17592;SDS011;8915;51.760;14.300;2024-03-02T03:25:30;29.43;;;19.07;;
17592;SDS011;8915;51.760;14.300;2024-03-02T03:28:15;31.50;;;20.00;;
17592;SDS011;8915;51.760;14.300;2024-03-02T03:30:41;28.97;;;19.20;;
17592;SDS011;8915;51.760;14.300;2024-03-02T03:33:11;32.60;;;19.80;;
17592;SDS011;8915;51.760;14.300;2024-03-02T03:35:43;30.03;;;19.73;;
17592;SDS011;8915;51.760;14.300;2024-03-02T03:38:10;29.60;;;19.13;;
17592;SDS011;8915;51.760;14.300;2024-03-02T03:41:02;27.17;;;17.83;;
17592;SDS011;8915;51.760;14.300;2024-03-02T03:43:33;30.53;;;19.40;;
17592;SDS011;8915;51.760;14.300;2024-03-02T03:46:04;29.83;;;17.73;;
17592;SDS011;8915;51.760;14.300;2024-03-02T03:48:39;30.73;;;19.43;;
17592;SDS011;8915;51.760;14.300;2024-03-02T03:51:07;27.03;;;18.97;;
17592;SDS011;8915;51.760;14.300;2024-03-02T03:53:38;30.17;;;19.40;;
17592;SDS011;8915;51.760;14.300;2024-03-02T03:56:19;27.47;;;18.13;;
17592;SDS011;8915;51.760;14.300;2024-03-02T03:58:53;29.47;;;19.13;;
17592;SDS011;8915;51.760;14.300;2024-03-02T04:01:24;25.80;;;19.47;;
17592;SDS011;8915;51.760;14.300;2024-03-02T04:03:57;25.97;;;18.53;;
17592;SDS011;8915;51.760;14.300;2024-03-02T04:06:29;31.83;;;19.60;;
17592;SDS011;8915;51.760;14.300;2024-03-02T04:09:16;29.40;;;19.40;;
17592;SDS011;8915;51.760;14.300;2024-03-02T04:12:01;29.13;;;18.67;;
17592;SDS011;8915;51.760;14.300;2024-03-02T04:14:49;27.70;;;18.33;;
17592;SDS011;8915;51.760;14.300;2024-03-02T04:17:25;29.53;;;18.03;;
17592;SDS011;8915;51.760;14.300;2024-03-02T04:20:05;28.57;;;18.37;;
17592;SDS011;8915;51.760;14.300;2024-03-02T04:22:43;30.53;;;19.57;;
17592;SDS011;8915;51.760;14.300;2024-03-02T04:25:32;30.33;;;19.60;;
17592;SDS011;8915;51.760;14.300;2024-03-02T04:28:06;23.50;;;17.37;;
17592;SDS011;8915;51.760;14.300;2024-03-02T04:30:43;27.93;;;18.47;;
17592;SDS011;8915;51.760;14.300;2024-03-02T04:33:12;26.43;;;18.80;;
17592;SDS011;8915;51.760;14.300;2024-03-02T04:35:45;28.60;;;19.30;;
17592;SDS011;8915;51.760;14.300;2024-03-02T04:38:25;32.20;;;19.43;;
17592;SDS011;8915;51.760;14.300;2024-03-02T04:41:01;28.93;;;18.90;;
17592;SDS011;8915;51.760;14.300;2024-03-02T04:43:37;28.90;;;19.17;;
17592;SDS011;8915;51.760;14.300;2024-03-02T04:46:08;24.90;;;17.97;;
17592;SDS011;8915;51.760;14.300;2024-03-02T04:48:45;28.00;;;19.17;;
17592;SDS011;8915;51.760;14.300;2024-03-02T04:51:24;29.07;;;18.33;;
17592;SDS011;8915;51.760;14.300;2024-03-02T04:54:05;24.50;;;17.50;;
17592;SDS011;8915;51.760;14.300;2024-03-02T04:56:46;26.47;;;18.13;;
17592;SDS011;8915;51.760;14.300;2024-03-02T04:59:21;27.70;;;18.97;;
17592;SDS011;8915;51.760;14.300;2024-03-02T05:01:56;30.30;;;18.43;;
17592;SDS011;8915;51.760;14.300;2024-03-02T05:07:33;28.97;;;18.27;;
17592;SDS011;8915;51.760;14.300;2024-03-02T05:10:12;28.30;;;18.93;;
17592;SDS011;8915;51.760;14.300;2024-03-02T05:12:43;30.37;;;19.50;;
17592;SDS011;8915;51.760;14.300;2024-03-02T05:15:43;27.80;;;18.60;;
17592;SDS011;8915;51.760;14.300;2024-03-02T05:18:17;27.23;;;19.30;;
17592;SDS011;8915;51.760;14.300;2024-03-02T05:20:49;27.87;;;17.40;;
17592;SDS011;8915;51.760;14.300;2024-03-02T05:23:33;28.67;;;18.13;;
17592;SDS011;8915;51.760;14.300;2024-03-02T05:26:16;30.57;;;19.53;;
17592;SDS011;8915;51.760;14.300;2024-03-02T05:29:18;33.07;;;19.77;;
17592;SDS011;8915;51.760;14.300;2024-03-02T05:31:53;26.37;;;17.37;;
17592;SDS011;8915;51.760;14.300;2024-03-02T05:34:25;29.57;;;19.00;;
17592;SDS011;8915;51.760;14.300;2024-03-02T05:37:03;30.13;;;18.97;;
17592;SDS011;8915;51.760;14.300;2024-03-02T05:39:46;31.67;;;18.40;;
17592;SDS011;8915;51.760;14.300;2024-03-02T05:42:16;26.93;;;18.03;;
17592;SDS011;8915;51.760;14.300;2024-03-02T05:44:53;29.40;;;19.13;;
17592;SDS011;8915;51.760;14.300;2024-03-02T05:47:25;28.10;;;19.07;;
17592;SDS011;8915;51.760;14.300;2024-03-02T05:50:08;27.97;;;19.17;;
17592;SDS011;8915;51.760;14.300;2024-03-02T05:52:38;32.30;;;18.77;;
17592;SDS011;8915;51.760;14.300;2024-03-02T05:55:11;27.50;;;19.10;;
17592;SDS011;8915;51.760;14.300;2024-03-02T05:57:58;32.30;;;18.43;;
17592;SDS011;8915;51.760;14.300;2024-03-02T06:00:51;29.00;;;17.80;;
17592;SDS011;8915;51.760;14.300;2024-03-02T06:03:29;30.63;;;19.43;;
17592;SDS011;8915;51.760;14.300;2024-03-02T06:06:00;32.50;;;19.13;;
17592;SDS011;8915;51.760;14.300;2024-03-02T06:08:36;29.93;;;20.07;;
17592;SDS011;8915;51.760;14.300;2024-03-02T06:11:15;28.83;;;19.23;;
17592;SDS011;8915;51.760;14.300;2024-03-02T06:13:43;30.83;;;20.13;;
17592;SDS011;8915;51.760;14.300;2024-03-02T06:16:17;29.37;;;19.50;;
17592;SDS011;8915;51.760;14.300;2024-03-02T06:18:51;32.00;;;20.27;;
17592;SDS011;8915;51.760;14.300;2024-03-02T06:21:33;27.90;;;18.53;;
17592;SDS011;8915;51.760;14.300;2024-03-02T06:24:14;32.57;;;19.97;;
17592;SDS011;8915;51.760;14.300;2024-03-02T06:26:46;25.07;;;18.10;;
17592;SDS011;8915;51.760;14.300;2024-03-02T06:29:30;31.83;;;19.27;;
17592;SDS011;8915;51.760;14.300;2024-03-02T06:32:17;35.20;;;19.77;;
17592;SDS011;8915;51.760;14.300;2024-03-02T06:34:48;35.13;;;21.30;;
17592;SDS011;8915;51.760;14.300;2024-03-02T06:37:27;29.43;;;21.27;;
17592;SDS011;8915;51.760;14.300;2024-03-02T06:40:02;34.20;;;21.53;;
17592;SDS011;8915;51.760;14.300;2024-03-02T06:42:40;35.10;;;20.10;;
17592;SDS011;8915;51.760;14.300;2024-03-02T06:45:14;35.70;;;21.13;;
17592;SDS011;8915;51.760;14.300;2024-03-02T06:47:46;33.77;;;21.63;;
17592;SDS011;8915;51.760;14.300;2024-03-02T06:50:19;34.50;;;21.50;;
17592;SDS011;8915;51.760;14.300;2024-03-02T06:52:59;37.77;;;22.67;;
17592;SDS011;8915;51.760;14.300;2024-03-02T06:55:32;39.43;;;22.67;;
17592;SDS011;8915;51.760;14.300;2024-03-02T06:57:58;42.27;;;23.60;;
17592;SDS011;8915;51.760;14.300;2024-03-02T07:00:25;39.37;;;23.47;;
17592;SDS011;8915;51.760;14.300;2024-03-02T07:02:51;45.03;;;25.17;;
17592;SDS011;8915;51.760;14.300;2024-03-02T07:05:20;39.73;;;24.60;;
17592;SDS011;8915;51.760;14.300;2024-03-02T07:07:47;40.63;;;23.43;;
17592;SDS011;8915;51.760;14.300;2024-03-02T07:10:15;40.10;;;24.33;;
17592;SDS011;8915;51.760;14.300;2024-03-02T07:12:41;41.10;;;24.93;;
17592;SDS011;8915;51.760;14.300;2024-03-02T07:15:09;43.67;;;26.27;;
17592;SDS011;8915;51.760;14.300;2024-03-02T07:18:02;46.10;;;26.30;;
17592;SDS011;8915;51.760;14.300;2024-03-02T07:20:29;47.40;;;26.17;;
17592;SDS011;8915;51.760;14.300;2024-03-02T07:22:55;42.43;;;24.90;;
17592;SDS011;8915;51.760;14.300;2024-03-02T07:25:23;42.63;;;25.10;;
17592;SDS011;8915;51.760;14.300;2024-03-02T07:27:50;45.23;;;25.53;;
17592;SDS011;8915;51.760;14.300;2024-03-02T07:30:16;42.47;;;25.07;;
17592;SDS011;8915;51.760;14.300;2024-03-02T07:32:43;51.67;;;26.77;;
17592;SDS011;8915;51.760;14.300;2024-03-02T07:35:11;46.83;;;26.30;;
17592;SDS011;8915;51.760;14.300;2024-03-02T07:37:37;45.87;;;26.13;;
17592;SDS011;8915;51.760;14.300;2024-03-02T07:40:04;51.90;;;28.10;;
17592;SDS011;8915;51.760;14.300;2024-03-02T07:42:35;49.23;;;26.87;;
17592;SDS011;8915;51.760;14.300;2024-03-02T07:45:02;40.40;;;24.37;;
17592;SDS011;8915;51.760;14.300;2024-03-02T07:47:28;40.33;;;23.77;;
17592;SDS011;8915;51.760;14.300;2024-03-02T07:49:57;38.23;;;24.17;;
17592;SDS011;8915;51.760;14.300;2024-03-02T07:52:27;38.43;;;23.53;;
17592;SDS011;8915;51.760;14.300;2024-03-02T07:55:08;40.47;;;24.40;;
17592;SDS011;8915;51.760;14.300;2024-03-02T07:57:44;47.43;;;26.13;;
17592;SDS011;8915;51.760;14.300;2024-03-02T08:00:17;43.60;;;24.50;;
17592;SDS011;8915;51.760;14.300;2024-03-02T08:02:43;44.23;;;24.87;;
17592;SDS011;8915;51.760;14.300;2024-03-02T08:05:10;44.73;;;25.77;;
17592;SDS011;8915;51.760;14.300;2024-03-02T08:07:37;45.73;;;27.57;;
17592;SDS011;8915;51.760;14.300;2024-03-02T08:10:04;49.50;;;27.63;;
17592;SDS011;8915;51.760;14.300;2024-03-02T08:12:31;48.50;;;27.87;;
17592;SDS011;8915;51.760;14.300;2024-03-02T08:14:59;54.30;;;30.83;;
17592;SDS011;8915;51.760;14.300;2024-03-02T08:17:25;51.33;;;29.63;;
17592;SDS011;8915;51.760;14.300;2024-03-02T08:19:52;50.97;;;30.10;;
17592;SDS011;8915;51.760;14.300;2024-03-02T08:22:18;52.33;;;28.57;;
17592;SDS011;8915;51.760;14.300;2024-03-02T08:24:45;49.90;;;28.20;;
17592;SDS011;8915;51.760;14.300;2024-03-02T08:27:11;47.80;;;27.43;;
17592;SDS011;8915;51.760;14.300;2024-03-02T08:29:38;49.93;;;29.77;;
17592;SDS011;8915;51.760;14.300;2024-03-02T08:32:06;49.77;;;28.60;;
17592;SDS011;8915;51.760;14.300;2024-03-02T08:34:32;50.77;;;28.93;;
17592;SDS011;8915;51.760;14.300;2024-03-02T08:36:58;50.80;;;28.33;;
17592;SDS011;8915;51.760;14.300;2024-03-02T08:39:25;49.37;;;29.50;;
17592;SDS011;8915;51.760;14.300;2024-03-02T08:41:51;50.20;;;28.77;;
17592;SDS011;8915;51.760;14.300;2024-03-02T08:44:18;51.03;;;29.40;;
17592;SDS011;8915;51.760;14.300;2024-03-02T08:46:45;53.67;;;27.53;;
17592;SDS011;8915;51.760;14.300;2024-03-02T08:49:13;50.40;;;28.50;;
17592;SDS011;8915;51.760;14.300;2024-03-02T08:51:39;51.47;;;28.87;;
17592;SDS011;8915;51.760;14.300;2024-03-02T08:54:05;53.07;;;29.13;;
17592;SDS011;8915;51.760;14.300;2024-03-02T08:56:32;56.77;;;30.73;;
17592;SDS011;8915;51.760;14.300;2024-03-02T08:58:58;53.43;;;29.57;;
17592;SDS011;8915;51.760;14.300;2024-03-02T09:01:24;51.97;;;28.30;;
17592;SDS011;8915;51.760;14.300;2024-03-02T09:03:51;52.77;;;29.80;;
17592;SDS011;8915;51.760;14.300;2024-03-02T09:06:18;54.53;;;29.60;;
17592;SDS011;8915;51.760;14.300;2024-03-02T09:08:46;57.77;;;30.60;;
17592;SDS011;8915;51.760;14.300;2024-03-02T09:11:13;52.37;;;29.57;;
17592;SDS011;8915;51.760;14.300;2024-03-02T09:13:39;53.87;;;30.63;;
17592;SDS011;8915;51.760;14.300;2024-03-02T09:16:06;52.10;;;28.27;;
17592;SDS011;8915;51.760;14.300;2024-03-02T09:18:35;54.40;;;28.63;;
17592;SDS011;8915;51.760;14.300;2024-03-02T09:21:02;48.97;;;27.60;;
17592;SDS011;8915;51.760;14.300;2024-03-02T09:23:30;50.77;;;27.33;;
17592;SDS011;8915;51.760;14.300;2024-03-02T09:25:57;47.40;;;28.13;;
17592;SDS011;8915;51.760;14.300;2024-03-02T09:28:23;45.20;;;26.00;;
17592;SDS011;8915;51.760;14.300;2024-03-02T09:30:50;51.23;;;28.77;;
17592;SDS011;8915;51.760;14.300;2024-03-02T09:33:16;52.77;;;28.70;;
17592;SDS011;8915;51.760;14.300;2024-03-02T09:35:42;53.03;;;28.90;;
17592;SDS011;8915;51.760;14.300;2024-03-02T09:38:09;59.10;;;33.47;;
17592;SDS011;8915;51.760;14.300;2024-03-02T09:40:36;63.90;;;34.27;;
17592;SDS011;8915;51.760;14.300;2024-03-02T09:43:03;57.23;;;31.80;;
17592;SDS011;8915;51.760;14.300;2024-03-02T09:45:30;59.53;;;32.83;;
17592;SDS011;8915;51.760;14.300;2024-03-02T09:47:56;57.53;;;30.73;;
17592;SDS011;8915;51.760;14.300;2024-03-02T09:50:22;53.73;;;29.27;;
17592;SDS011;8915;51.760;14.300;2024-03-02T09:52:49;53.57;;;30.00;;
17592;SDS011;8915;51.760;14.300;2024-03-02T09:55:16;61.63;;;35.47;;
17592;SDS011;8915;51.760;14.300;2024-03-02T09:57:44;53.10;;;27.20;;
17592;SDS011;8915;51.760;14.300;2024-03-02T10:00:11;48.47;;;24.97;;
17592;SDS011;8915;51.760;14.300;2024-03-02T10:02:39;48.77;;;24.10;;
17592;SDS011;8915;51.760;14.300;2024-03-02T10:05:06;43.93;;;25.07;;
17592;SDS011;8915;51.760;14.300;2024-03-02T10:07:33;44.63;;;24.93;;
17592;SDS011;8915;51.760;14.300;2024-03-02T10:10:00;45.17;;;25.37;;
17592;SDS011;8915;51.760;14.300;2024-03-02T10:12:39;45.87;;;26.60;;
17592;SDS011;8915;51.760;14.300;2024-03-02T10:15:07;47.13;;;26.13;;
17592;SDS011;8915;51.760;14.300;2024-03-02T10:17:34;42.77;;;23.63;;
17592;SDS011;8915;51.760;14.300;2024-03-02T10:20:09;41.53;;;24.77;;
17592;SDS011;8915;51.760;14.300;2024-03-02T10:22:48;41.93;;;23.10;;
17592;SDS011;8915;51.760;14.300;2024-03-02T10:25:27;37.80;;;21.57;;
17592;SDS011;8915;51.760;14.300;2024-03-02T10:27:56;35.40;;;21.43;;
17592;SDS011;8915;51.760;14.300;2024-03-02T10:30:25;42.67;;;23.33;;
17592;SDS011;8915;51.760;14.300;2024-03-02T10:32:52;40.23;;;23.90;;
17592;SDS011;8915;51.760;14.300;2024-03-02T10:35:19;39.30;;;23.27;;
17592;SDS011;8915;51.760;14.300;2024-03-02T10:37:47;40.23;;;22.30;;
17592;SDS011;8915;51.760;14.300;2024-03-02T10:40:13;37.47;;;20.93;;
17592;SDS011;8915;51.760;14.300;2024-03-02T10:42:40;42.27;;;23.00;;
17592;SDS011;8915;51.760;14.300;2024-03-02T10:45:08;37.60;;;22.77;;
17592;SDS011;8915;51.760;14.300;2024-03-02T10:47:37;40.67;;;22.20;;
17592;SDS011;8915;51.760;14.300;2024-03-02T10:50:04;36.50;;;21.57;;
17592;SDS011;8915;51.760;14.300;2024-03-02T10:52:33;36.23;;;20.77;;
17592;SDS011;8915;51.760;14.300;2024-03-02T10:55:00;35.10;;;19.60;;
17592;SDS011;8915;51.760;14.300;2024-03-02T10:57:26;31.53;;;18.87;;
17592;SDS011;8915;51.760;14.300;2024-03-02T10:59:53;29.53;;;17.50;;
17592;SDS011;8915;51.760;14.300;2024-03-02T11:02:27;28.97;;;18.33;;
17592;SDS011;8915;51.760;14.300;2024-03-02T11:04:58;39.50;;;20.00;;
17592;SDS011;8915;51.760;14.300;2024-03-02T11:07:27;27.70;;;16.73;;
17592;SDS011;8915;51.760;14.300;2024-03-02T11:09:56;31.13;;;17.80;;
17592;SDS011;8915;51.760;14.300;2024-03-02T11:12:31;28.57;;;16.70;;
17592;SDS011;8915;51.760;14.300;2024-03-02T11:15:05;30.60;;;16.37;;
17592;SDS011;8915;51.760;14.300;2024-03-02T11:17:36;25.90;;;15.97;;
17592;SDS011;8915;51.760;14.300;2024-03-02T11:20:07;25.90;;;16.53;;
17592;SDS011;8915;51.760;14.300;2024-03-02T11:22:35;28.17;;;16.30;;
17592;SDS011;8915;51.760;14.300;2024-03-02T11:25:22;27.03;;;16.97;;
17592;SDS011;8915;51.760;14.300;2024-03-02T11:27:59;28.63;;;17.07;;
17592;SDS011;8915;51.760;14.300;2024-03-02T11:33:14;23.70;;;14.70;;
17592;SDS011;8915;51.760;14.300;2024-03-02T11:35:50;27.53;;;14.80;;
17592;SDS011;8915;51.760;14.300;2024-03-02T11:38:17;22.53;;;13.87;;
17592;SDS011;8915;51.760;14.300;2024-03-02T11:40:44;23.40;;;13.93;;
17592;SDS011;8915;51.760;14.300;2024-03-02T11:43:10;22.07;;;13.47;;
17592;SDS011;8915;51.760;14.300;2024-03-02T11:45:37;21.67;;;13.00;;
17592;SDS011;8915;51.760;14.300;2024-03-02T11:48:06;25.67;;;13.97;;
17592;SDS011;8915;51.760;14.300;2024-03-02T11:50:39;22.53;;;13.87;;
17592;SDS011;8915;51.760;14.300;2024-03-02T11:53:08;23.10;;;13.37;;
17592;SDS011;8915;51.760;14.300;2024-03-02T11:55:37;24.33;;;14.57;;
17592;SDS011;8915;51.760;14.300;2024-03-02T11:58:05;26.83;;;15.33;;
17592;SDS011;8915;51.760;14.300;2024-03-02T12:00:32;24.07;;;13.50;;
17592;SDS011;8915;51.760;14.300;2024-03-02T12:03:02;21.80;;;12.60;;
17592;SDS011;8915;51.760;14.300;2024-03-02T12:05:32;20.73;;;13.30;;
17592;SDS011;8915;51.760;14.300;2024-03-02T12:08:00;22.90;;;13.00;;
17592;SDS011;8915;51.760;14.300;2024-03-02T12:10:29;22.73;;;14.17;;
17592;SDS011;8915;51.760;14.300;2024-03-02T12:12:56;21.97;;;13.93;;
17592;SDS011;8915;51.760;14.300;2024-03-02T12:15:24;25.43;;;13.80;;
17592;SDS011;8915;51.760;14.300;2024-03-02T12:17:55;22.50;;;13.77;;
17592;SDS011;8915;51.760;14.300;2024-03-02T12:20:21;25.13;;;13.23;;
17592;SDS011;8915;51.760;14.300;2024-03-02T12:22:49;24.87;;;13.47;;
17592;SDS011;8915;51.760;14.300;2024-03-02T12:25:17;17.97;;;12.03;;
17592;SDS011;8915;51.760;14.300;2024-03-02T12:27:47;18.40;;;11.83;;
17592;SDS011;8915;51.760;14.300;2024-03-02T12:30:16;20.27;;;12.37;;
17592;SDS011;8915;51.760;14.300;2024-03-02T12:32:43;20.50;;;12.33;;
17592;SDS011;8915;51.760;14.300;2024-03-02T12:35:10;23.27;;;12.87;;
17592;SDS011;8915;51.760;14.300;2024-03-02T12:37:43;21.40;;;12.97;;
17592;SDS011;8915;51.760;14.300;2024-03-02T12:40:10;23.73;;;13.43;;
17592;SDS011;8915;51.760;14.300;2024-03-02T12:42:37;21.07;;;12.23;;
17592;SDS011;8915;51.760;14.300;2024-03-02T12:45:05;23.67;;;12.57;;
17592;SDS011;8915;51.760;14.300;2024-03-02T12:47:33;18.80;;;12.77;;
17592;SDS011;8915;51.760;14.300;2024-03-02T12:49:59;24.07;;;13.43;;
17592;SDS011;8915;51.760;14.300;2024-03-02T12:52:26;22.37;;;14.87;;
17592;SDS011;8915;51.760;14.300;2024-03-02T12:54:53;19.57;;;13.07;;
17592;SDS011;8915;51.760;14.300;2024-03-02T12:57:24;19.57;;;11.97;;
17592;SDS011;8915;51.760;14.300;2024-03-02T12:59:51;18.03;;;12.03;;
17592;SDS011;8915;51.760;14.300;2024-03-02T13:02:19;17.73;;;11.20;;
17592;SDS011;8915;51.760;14.300;2024-03-02T13:04:52;18.67;;;10.83;;
17592;SDS011;8915;51.760;14.300;2024-03-02T13:07:19;19.33;;;11.13;;
17592;SDS011;8915;51.760;14.300;2024-03-02T13:09:47;17.80;;;11.03;;
17592;SDS011;8915;51.760;14.300;2024-03-02T13:12:14;15.67;;;10.10;;
17592;SDS011;8915;51.760;14.300;2024-03-02T13:14:41;15.17;;;9.83;;
17592;SDS011;8915;51.760;14.300;2024-03-02T13:17:07;17.60;;;10.03;;
17592;SDS011;8915;51.760;14.300;2024-03-02T13:19:35;14.40;;;9.43;;
17592;SDS011;8915;51.760;14.300;2024-03-02T13:22:02;15.27;;;9.67;;
17592;SDS011;8915;51.760;14.300;2024-03-02T13:24:29;22.53;;;11.83;;
17592;SDS011;8915;51.760;14.300;2024-03-02T13:26:55;16.93;;;10.67;;
17592;SDS011;8915;51.760;14.300;2024-03-02T13:29:28;13.40;;;8.37;;
17592;SDS011;8915;51.760;14.300;2024-03-02T13:31:55;13.07;;;8.30;;
17592;SDS011;8915;51.760;14.300;2024-03-02T13:34:22;12.27;;;8.10;;
17592;SDS011;8915;51.760;14.300;2024-03-02T13:36:50;11.63;;;7.30;;
17592;SDS011;8915;51.760;14.300;2024-03-02T13:39:16;13.00;;;7.90;;
17592;SDS011;8915;51.760;14.300;2024-03-02T13:41:43;16.30;;;9.10;;
17592;SDS011;8915;51.760;14.300;2024-03-02T13:44:17;13.03;;;8.07;;
17592;SDS011;8915;51.760;14.300;2024-03-02T13:46:43;13.27;;;8.03;;
17592;SDS011;8915;51.760;14.300;2024-03-02T13:49:10;10.13;;;7.00;;
17592;SDS011;8915;51.760;14.300;2024-03-02T13:51:37;13.73;;;7.67;;
17592;SDS011;8915;51.760;14.300;2024-03-02T13:54:05;11.60;;;7.83;;
17592;SDS011;8915;51.760;14.300;2024-03-02T13:56:31;14.23;;;8.47;;
17592;SDS011;8915;51.760;14.300;2024-03-02T13:58:58;11.13;;;7.73;;
17592;SDS011;8915;51.760;14.300;2024-03-02T14:01:24;14.10;;;8.33;;
17592;SDS011;8915;51.760;14.300;2024-03-02T14:03:52;11.70;;;8.20;;
17592;SDS011;8915;51.760;14.300;2024-03-02T14:06:19;11.40;;;7.67;;
17592;SDS011;8915;51.760;14.300;2024-03-02T14:08:46;14.03;;;7.43;;
17592;SDS011;8915;51.760;14.300;2024-03-02T14:11:15;11.57;;;6.33;;
17592;SDS011;8915;51.760;14.300;2024-03-02T14:13:41;12.13;;;7.70;;
17592;SDS011;8915;51.760;14.300;2024-03-02T14:16:09;11.17;;;6.70;;
17592;SDS011;8915;51.760;14.300;2024-03-02T14:18:35;17.23;;;6.97;;
17592;SDS011;8915;51.760;14.300;2024-03-02T14:21:02;10.03;;;6.80;;
17592;SDS011;8915;51.760;14.300;2024-03-02T14:23:30;15.30;;;6.63;;
17592;SDS011;8915;51.760;14.300;2024-03-02T14:25:57;19.43;;;7.60;;
17592;SDS011;8915;51.760;14.300;2024-03-02T14:28:35;13.83;;;8.60;;
17592;SDS011;8915;51.760;14.300;2024-03-02T14:31:13;17.63;;;9.37;;
17592;SDS011;8915;51.760;14.300;2024-03-02T14:33:50;12.63;;;7.33;;
17592;SDS011;8915;51.760;14.300;2024-03-02T14:36:18;9.00;;;6.20;;
17592;SDS011;8915;51.760;14.300;2024-03-02T14:39:04;14.97;;;7.60;;
17592;SDS011;8915;51.760;14.300;2024-03-02T14:41:39;13.53;;;7.67;;
17592;SDS011;8915;51.760;14.300;2024-03-02T14:44:09;14.57;;;8.37;;
17592;SDS011;8915;51.760;14.300;2024-03-02T14:46:46;11.47;;;7.27;;
17592;SDS011;8915;51.760;14.300;2024-03-02T14:49:25;12.07;;;6.77;;
17592;SDS011;8915;51.760;14.300;2024-03-02T14:52:08;12.43;;;7.17;;
17592;SDS011;8915;51.760;14.300;2024-03-02T14:54:42;11.20;;;7.07;;
17592;SDS011;8915;51.760;14.300;2024-03-02T14:57:15;10.63;;;6.97;;
17592;SDS011;8915;51.760;14.300;2024-03-02T14:59:58;8.77;;;6.80;;
17592;SDS011;8915;51.760;14.300;2024-03-02T15:02:40;12.40;;;6.97;;
17592;SDS011;8915;51.760;14.300;2024-03-02T15:05:15;12.13;;;7.53;;
17592;SDS011;8915;51.760;14.300;2024-03-02T15:07:47;15.20;;;7.93;;